createdAt,value
2023-10-26T00:04:28.378Z,97478.5
2023-10-26T00:10:04.380Z,97480
2023-10-26T00:15:40.348Z,97475.9
2023-10-26T00:21:16.462Z,97470.5
2023-10-26T00:26:52.615Z,97473
2023-10-26T00:32:28.396Z,97472
2023-10-26T00:38:03.717Z,97454
2023-10-26T00:43:38.876Z,97453.4
2023-10-26T00:49:14.546Z,97447.1
2023-10-26T00:54:51.066Z,97443.7
2023-10-26T01:00:26.524Z,97443.7
2023-10-26T01:06:04.890Z,97449.4
2023-10-26T01:11:41.259Z,97457.3
2023-10-26T01:17:17.621Z,97466.6
2023-10-26T01:22:53.640Z,97462.5
2023-10-26T01:28:29.508Z,97455.8
2023-10-26T01:34:05.518Z,97456.9
2023-10-26T01:39:40.774Z,97454.7
2023-10-26T01:45:16.548Z,97461.9
2023-10-26T01:50:52.399Z,97464.5
2023-10-26T01:56:28.517Z,97473.4
2023-10-26T02:02:04.803Z,97473.3
2023-10-26T02:07:40.835Z,97468
2023-10-26T02:13:16.738Z,97467.7
2023-10-26T02:18:52.731Z,97464.9
2023-10-26T02:24:29.204Z,97455.5
2023-10-26T02:30:04.807Z,97447
2023-10-26T02:35:40.860Z,97420.4
2023-10-26T02:41:16.020Z,97410.9
2023-10-26T02:46:52.005Z,97405.1
2023-10-26T02:52:27.367Z,97397.2
2023-10-26T02:58:03.091Z,97393
2023-10-26T03:03:39.406Z,97385.2
2023-10-26T03:09:15.829Z,97401.9
2023-10-26T03:14:51.785Z,97371.9
2023-10-26T03:20:27.535Z,97381.6
2023-10-26T03:26:03.651Z,97391.4
2023-10-26T03:31:39.217Z,97397.2
2023-10-26T03:37:14.683Z,97423.1
2023-10-26T03:42:50.531Z,97432.1
2023-10-26T03:48:25.904Z,97440.7
2023-10-26T03:54:01.663Z,97442.1
2023-10-26T03:59:37.705Z,97446.2
2023-10-26T04:05:12.844Z,97474.9
2023-10-26T04:10:48.050Z,97473.1
2023-10-26T04:16:24.321Z,97476.2
2023-10-26T04:22:00.089Z,97482.5
2023-10-26T04:27:35.773Z,97463.6
2023-10-26T04:33:12.256Z,97452.7
2023-10-26T04:38:47.708Z,97458.7
2023-10-26T04:44:23.452Z,97460.5
2023-10-26T04:49:58.686Z,97446.9
2023-10-26T04:55:34.689Z,97443.7
2023-10-26T05:01:10.443Z,97410.1
2023-10-26T05:06:45.917Z,97387
2023-10-26T05:12:21.971Z,97393.2
2023-10-26T05:17:58.078Z,97370
2023-10-26T05:23:33.960Z,97357.8
2023-10-26T05:29:09.090Z,97363.6
2023-10-26T05:34:45.256Z,97352.4
2023-10-26T05:40:20.813Z,97349.8
2023-10-26T05:45:56.506Z,97340
2023-10-26T05:51:31.973Z,97322.5
2023-10-26T05:57:08.058Z,97319.9
2023-10-26T06:02:44.156Z,97302.4
2023-10-26T06:08:19.422Z,97269.1
2023-10-26T06:13:54.533Z,97258.3
2023-10-26T06:19:29.746Z,97266.3
2023-10-26T06:25:05.340Z,97265.6
2023-10-26T06:30:41.215Z,97273.9
2023-10-26T06:36:17.056Z,97273
2023-10-26T06:41:52.542Z,97254.2
2023-10-26T06:47:28.206Z,97257.6
2023-10-26T06:53:03.641Z,97248.2
2023-10-26T06:58:39.118Z,97239.8
2023-10-26T07:04:15.452Z,97241.7
2023-10-26T07:09:51.445Z,97266.4
2023-10-26T07:15:27.084Z,97267.5
2023-10-26T07:21:03.135Z,97267.9
2023-10-26T07:26:38.693Z,97279.8
2023-10-26T07:32:14.520Z,97273.2
2023-10-26T07:38:37.650Z,97293.2
2023-10-26T07:44:13.959Z,97293.9
2023-10-26T07:49:49.126Z,97289.9
2023-10-26T07:55:25.072Z,97296.9
2023-10-26T08:01:00.974Z,97293
2023-10-26T08:06:36.452Z,97295.2
2023-10-26T08:12:11.622Z,97305.1
2023-10-26T08:17:48.166Z,97307.4
2023-10-26T08:23:25.015Z,97313.4
2023-10-26T08:29:24.824Z,97315.4
2023-10-26T08:35:05.255Z,97288.8
2023-10-26T08:40:41.929Z,97292.9
2023-10-26T08:46:18.004Z,97300.2
2023-10-26T08:51:53.851Z,97301.9
2023-10-26T08:57:29.160Z,97274
2023-10-26T09:03:08.868Z,97319.3
2023-10-26T09:08:45.713Z,97276.6
2023-10-26T09:14:21.538Z,97300.2
2023-10-26T09:19:57.316Z,97305
2023-10-26T09:25:33.398Z,97334.4
2023-10-26T09:31:10.154Z,97331.8
2023-10-26T09:36:45.302Z,97324.8
2023-10-26T09:42:20.375Z,97350.9
2023-10-26T09:47:56.765Z,97343.5
2023-10-26T09:53:33.620Z,97340.9
2023-10-26T09:59:09.626Z,97334.2
2023-10-26T10:04:49.233Z,97342.1
2023-10-26T10:10:27.132Z,97318.7
2023-10-26T10:16:02.564Z,97335.3
2023-10-26T10:21:39.236Z,97303.5
2023-10-26T10:27:15.013Z,97305.7
2023-10-26T10:32:51.346Z,97323.1
2023-10-26T10:38:27.936Z,97297.6
2023-10-26T10:44:03.397Z,97281.2
2023-10-26T10:49:39.550Z,97316.4
2023-10-26T10:55:15.095Z,97317.1
2023-10-26T11:00:51.506Z,97342.6
2023-10-26T11:06:27.230Z,97306.9
2023-10-26T11:12:03.110Z,97239.6
2023-10-26T11:17:39.714Z,97213.4
2023-10-26T11:23:15.818Z,97191.2
2023-10-26T11:28:52.008Z,97180.4
2023-10-26T11:34:28.792Z,97143.5
2023-10-26T11:40:04.286Z,97117.1
2023-10-26T11:45:39.651Z,97113
2023-10-26T11:51:16.371Z,97121.9
2023-10-26T11:56:51.811Z,97103.2
2023-10-26T12:02:27.975Z,97091.5
2023-10-26T12:08:05.368Z,97058.5
2023-10-26T12:13:41.697Z,97034.6
2023-10-26T12:19:17.042Z,97025.3
2023-10-26T12:24:53.639Z,97017.7
2023-10-26T12:30:29.709Z,97001.6
2023-10-26T12:36:05.897Z,96972.7
2023-10-26T12:41:42.048Z,96962.7
2023-10-26T12:47:17.287Z,96960.7
2023-10-26T12:52:52.927Z,96946.4
2023-10-26T12:58:30.114Z,96939.5
2023-10-26T13:04:05.936Z,96911.1
2023-10-26T13:09:42.638Z,96895.9
2023-10-26T13:15:22.255Z,96867.2
2023-10-26T13:20:58.699Z,96872
2023-10-26T13:26:34.763Z,96856.9
2023-10-26T13:32:11.177Z,96859.3
2023-10-26T13:37:46.350Z,96836.8
2023-10-26T13:43:21.950Z,96796.4
2023-10-26T13:48:58.681Z,96814.9
2023-10-26T13:54:35.049Z,96790
2023-10-26T14:00:11.233Z,96784.4
2023-10-26T14:05:48.627Z,96782.6
2023-10-26T14:11:23.645Z,96792.9
2023-10-26T14:16:59.928Z,96775.4
2023-10-26T14:22:36.684Z,96798.6
2023-10-26T14:28:12.075Z,96804.9
2023-10-26T14:33:48.075Z,96820.1
2023-10-26T14:39:25.922Z,96826.5
2023-10-26T14:45:01.316Z,96832.1
2023-10-26T14:50:37.920Z,96859.4
2023-10-26T14:56:14.398Z,96853
2023-10-26T15:01:50.311Z,96860.3
2023-10-26T15:07:25.927Z,96848.6
2023-10-26T15:13:02.385Z,96857.6
2023-10-26T15:18:37.820Z,96868.8
2023-10-26T15:24:14.127Z,96887.6
2023-10-26T15:29:50.735Z,96883.3
2023-10-26T15:35:25.922Z,96914.4
2023-10-26T15:41:01.810Z,96999.9
2023-10-26T15:46:38.964Z,97009.9
2023-10-26T15:52:14.480Z,97023.1
2023-10-26T15:57:52.174Z,97052.9
2023-10-26T16:03:31.111Z,97047.8
2023-10-26T16:09:06.396Z,97068.3
2023-10-26T16:14:43.056Z,97084.4
2023-10-26T16:20:20.702Z,97095.6
2023-10-26T16:25:55.971Z,97095
2023-10-26T16:31:32.062Z,97095.1
2023-10-26T16:37:09.334Z,97118.4
2023-10-26T16:42:45.353Z,97132.4
2023-10-26T16:48:21.611Z,97149.3
2023-10-26T16:53:58.268Z,97149
2023-10-26T16:59:33.563Z,97132
2023-10-26T17:05:09.645Z,97130.3
2023-10-26T17:10:45.884Z,97075.8
2023-10-26T17:16:21.135Z,97115.7
2023-10-26T17:21:58.216Z,97130.9
2023-10-26T17:27:35.081Z,97131.7
2023-10-26T17:33:15.091Z,97134.7
2023-10-26T17:38:50.636Z,97155.3
2023-10-26T17:44:26.926Z,97170.5
2023-10-26T17:50:01.893Z,97185.1
2023-10-26T17:55:37.673Z,97199
2023-10-26T18:01:14.653Z,97209.2
2023-10-26T18:06:51.394Z,97220.4
2023-10-26T18:12:28.389Z,97233.3
2023-10-26T18:18:08.760Z,97246.3
2023-10-26T18:23:43.832Z,97254.6
2023-10-26T18:29:19.096Z,97255.8
2023-10-26T18:34:55.929Z,97259.6
2023-10-26T18:40:32.050Z,97269.6
2023-10-26T18:46:08.296Z,97283
2023-10-26T18:51:45.136Z,97304.2
2023-10-26T18:57:20.756Z,97309.1
2023-10-26T19:02:56.793Z,97308.8
2023-10-26T19:08:33.580Z,97318.1
2023-10-26T19:14:09.049Z,97318.7
2023-10-26T19:19:45.775Z,97326.4
2023-10-26T19:25:22.895Z,97322.9
2023-10-26T19:30:58.979Z,97335.1
2023-10-26T19:36:34.676Z,97340.5
2023-10-26T19:42:10.807Z,97348.8
2023-10-26T19:47:46.345Z,97355.5
2023-10-26T19:53:22.700Z,97359.8
2023-10-26T19:58:59.271Z,97375.6
2023-10-26T20:04:34.837Z,97378.3
2023-10-26T20:10:10.792Z,97392.6
2023-10-26T20:15:48.055Z,97403.6
2023-10-26T20:21:23.931Z,97416.4
2023-10-26T20:26:59.112Z,97421.4
2023-10-26T20:32:36.239Z,97434.2
2023-10-26T20:38:13.628Z,97433.2
2023-10-26T20:43:50.808Z,97440.6
2023-10-26T20:49:27.586Z,97446.6
2023-10-26T20:55:03.062Z,97455.9
2023-10-26T21:00:39.027Z,97465.6
2023-10-26T21:06:15.660Z,97471.8
2023-10-26T21:11:51.432Z,97479.1
2023-10-26T21:17:27.704Z,97488.2
2023-10-26T21:23:04.734Z,97489.2
2023-10-26T21:28:40.030Z,97496.5
2023-10-26T21:34:16.508Z,97493.1
2023-10-26T21:39:55.587Z,97496.7
2023-10-26T21:45:31.288Z,97495.6
2023-10-26T21:51:07.485Z,97505.5
2023-10-26T21:56:43.777Z,97506.5
2023-10-26T22:02:19.535Z,97511.3
2023-10-26T22:07:55.252Z,97507.5
2023-10-26T22:13:32.321Z,97498.9
2023-10-26T22:19:08.568Z,97501.6
2023-10-26T22:24:44.620Z,97507.1
2023-10-26T22:30:21.190Z,97511.7
2023-10-26T22:35:56.637Z,97516.1
2023-10-26T22:41:32.538Z,97511.8
2023-10-26T22:47:10.086Z,97521.1
2023-10-26T22:52:45.198Z,97525.9
2023-10-26T22:58:21.104Z,97529.3
2023-10-26T23:03:58.475Z,97537.1
2023-10-26T23:09:35.187Z,97550.7
2023-10-26T23:15:12.024Z,97545.7
2023-10-26T23:20:48.869Z,97530
2023-10-26T23:26:24.580Z,97531.4
2023-10-26T23:32:00.053Z,97527.7
2023-10-26T23:37:36.218Z,97531.8
2023-10-26T23:43:11.930Z,97526.9
2023-10-26T23:48:48.804Z,97524.1
2023-10-26T23:54:25.721Z,97532.8
